sensor_id;sensor_type;location;lat;lon;timestamp;temperature;humidity
10441;DHT22;5268;49.346;9.522;2023-10-19T03:10:16;12.00;99.90
10441;DHT22;5268;49.346;9.522;2023-10-19T03:15:24;12.00;99.90
10441;DHT22;5268;49.346;9.522;2023-10-19T03:20:30;12.00;99.90
10441;DHT22;5268;49.346;9.522;2023-10-19T03:25:35;12.00;99.90
10441;DHT22;5268;49.346;9.522;2023-10-19T03:31:07;12.00;99.90
10441;DHT22;5268;49.346;9.522;2023-10-19T03:36:09;12.00;99.90
10441;DHT22;5268;49.346;9.522;2023-10-19T03:41:15;12.00;99.90
10441;DHT22;5268;49.346;9.522;2023-10-19T03:46:21;12.00;99.90
10441;DHT22;5268;49.346;9.522;2023-10-19T03:51:29;12.00;99.90
10441;DHT22;5268;49.346;9.522;2023-10-19T03:56:41;12.00;99.90
10441;DHT22;5268;49.346;9.522;2023-10-19T04:01:45;11.90;99.90
10441;DHT22;5268;49.346;9.522;2023-10-19T04:06:47;12.00;99.90
10441;DHT22;5268;49.346;9.522;2023-10-19T04:11:51;12.00;99.90
10441;DHT22;5268;49.346;9.522;2023-10-19T04:16:53;12.00;99.90
10441;DHT22;5268;49.346;9.522;2023-10-19T04:21:56;12.00;99.90
10441;DHT22;5268;49.346;9.522;2023-10-19T04:27:00;12.00;99.90
10441;DHT22;5268;49.346;9.522;2023-10-19T04:32:02;12.00;99.90
10441;DHT22;5268;49.346;9.522;2023-10-19T04:37:07;12.00;99.90
10441;DHT22;5268;49.346;9.522;2023-10-19T04:42:15;12.00;99.90
10441;DHT22;5268;49.346;9.522;2023-10-19T04:47:17;12.00;99.90
10441;DHT22;5268;49.346;9.522;2023-10-19T04:52:19;12.00;99.90
10441;DHT22;5268;49.346;9.522;2023-10-19T04:57:22;12.00;99.90
10441;DHT22;5268;49.346;9.522;2023-10-19T05:02:24;12.10;99.90
10441;DHT22;5268;49.346;9.522;2023-10-19T05:07:26;12.10;99.90
10441;DHT22;5268;49.346;9.522;2023-10-19T05:12:31;12.10;99.90
10441;DHT22;5268;49.346;9.522;2023-10-19T05:17:33;12.10;99.90
10441;DHT22;5268;49.346;9.522;2023-10-19T05:22:35;12.10;99.90
10441;DHT22;5268;49.346;9.522;2023-10-19T05:27:39;12.00;99.90
10441;DHT22;5268;49.346;9.522;2023-10-19T05:32:44;12.00;99.90
10441;DHT22;5268;49.346;9.522;2023-10-19T05:37:47;12.00;99.90
10441;DHT22;5268;49.346;9.522;2023-10-19T05:42:51;12.10;99.90
10441;DHT22;5268;49.346;9.522;2023-10-19T05:47:53;12.10;99.90
10441;DHT22;5268;49.346;9.522;2023-10-19T05:52:55;12.00;99.90
10441;DHT22;5268;49.346;9.522;2023-10-19T05:57:59;12.00;99.90
10441;DHT22;5268;49.346;9.522;2023-10-19T06:03:01;12.00;99.90
10441;DHT22;5268;49.346;9.522;2023-10-19T06:08:05;12.00;99.90
10441;DHT22;5268;49.346;9.522;2023-10-19T06:18:50;12.10;99.90
10441;DHT22;5268;49.346;9.522;2023-10-19T06:30:23;12.20;99.90
10441;DHT22;5268;49.346;9.522;2023-10-19T06:35:32;12.30;99.90
10441;DHT22;5268;49.346;9.522;2023-10-19T06:46:19;12.40;99.90
10441;DHT22;5268;49.346;9.522;2023-10-19T06:51:22;12.40;99.90
10441;DHT22;5268;49.346;9.522;2023-10-19T06:56:24;12.50;99.90
10441;DHT22;5268;49.346;9.522;2023-10-19T07:01:28;12.50;99.90
10441;DHT22;5268;49.346;9.522;2023-10-19T07:06:32;12.60;99.90
10441;DHT22;5268;49.346;9.522;2023-10-19T07:11:34;12.80;99.90
10441;DHT22;5268;49.346;9.522;2023-10-19T07:16:37;13.20;99.90
10441;DHT22;5268;49.346;9.522;2023-10-19T07:21:40;13.60;99.90
10441;DHT22;5268;49.346;9.522;2023-10-19T07:26:44;13.60;99.90
10441;DHT22;5268;49.346;9.522;2023-10-19T07:32:05;13.60;99.90
10441;DHT22;5268;49.346;9.522;2023-10-19T07:37:09;13.90;99.90
10441;DHT22;5268;49.346;9.522;2023-10-19T07:42:15;14.20;99.90
10441;DHT22;5268;49.346;9.522;2023-10-19T07:47:19;14.40;99.90
10441;DHT22;5268;49.346;9.522;2023-10-19T07:52:21;14.70;99.90
10441;DHT22;5268;49.346;9.522;2023-10-19T07:57:23;14.80;99.90
10441;DHT22;5268;49.346;9.522;2023-10-19T08:02:27;14.70;99.90
10441;DHT22;5268;49.346;9.522;2023-10-19T08:07:29;14.50;99.90
10441;DHT22;5268;49.346;9.522;2023-10-19T08:12:32;14.30;99.90
10441;DHT22;5268;49.346;9.522;2023-10-19T08:17:36;14.30;99.90
10441;DHT22;5268;49.346;9.522;2023-10-19T08:22:38;14.30;99.90
10441;DHT22;5268;49.346;9.522;2023-10-19T08:27:41;14.30;99.90
10441;DHT22;5268;49.346;9.522;2023-10-19T08:32:47;14.30;99.90
10441;DHT22;5268;49.346;9.522;2023-10-19T08:38:07;14.30;99.90
10441;DHT22;5268;49.346;9.522;2023-10-19T08:43:31;14.30;99.90
10441;DHT22;5268;49.346;9.522;2023-10-19T08:48:49;14.40;99.90
10441;DHT22;5268;49.346;9.522;2023-10-19T08:54:07;14.40;99.90
10441;DHT22;5268;49.346;9.522;2023-10-19T08:59:32;14.60;99.90
10441;DHT22;5268;49.346;9.522;2023-10-19T09:04:55;14.80;99.90
10441;DHT22;5268;49.346;9.522;2023-10-19T09:10:22;15.00;99.90
10441;DHT22;5268;49.346;9.522;2023-10-19T09:15:39;15.20;99.90
10441;DHT22;5268;49.346;9.522;2023-10-19T09:20:46;15.40;99.90
10441;DHT22;5268;49.346;9.522;2023-10-19T09:25:57;15.70;99.90
10441;DHT22;5268;49.346;9.522;2023-10-19T09:31:14;15.90;99.90
10441;DHT22;5268;49.346;9.522;2023-10-19T09:36:51;16.10;99.90
10441;DHT22;5268;49.346;9.522;2023-10-19T09:41:58;16.50;99.90
10441;DHT22;5268;49.346;9.522;2023-10-19T09:47:10;16.90;99.90
10441;DHT22;5268;49.346;9.522;2023-10-19T09:52:16;17.40;99.90
10441;DHT22;5268;49.346;9.522;2023-10-19T09:57:25;17.80;99.90
10441;DHT22;5268;49.346;9.522;2023-10-19T10:02:29;18.20;99.90
10441;DHT22;5268;49.346;9.522;2023-10-19T10:07:36;18.40;99.90
10441;DHT22;5268;49.346;9.522;2023-10-19T10:12:38;18.70;99.90
10441;DHT22;5268;49.346;9.522;2023-10-19T10:17:40;18.80;99.90
10441;DHT22;5268;49.346;9.522;2023-10-19T10:22:43;18.80;99.90
10441;DHT22;5268;49.346;9.522;2023-10-19T10:27:50;18.90;99.90
10441;DHT22;5268;49.346;9.522;2023-10-19T10:32:53;18.90;99.90
10441;DHT22;5268;49.346;9.522;2023-10-19T10:37:58;18.90;99.90
10441;DHT22;5268;49.346;9.522;2023-10-19T10:43:06;18.90;99.90
10441;DHT22;5268;49.346;9.522;2023-10-19T10:48:12;18.90;99.90
10441;DHT22;5268;49.346;9.522;2023-10-19T10:53:16;19.00;99.90
10441;DHT22;5268;49.346;9.522;2023-10-19T10:58:19;19.10;99.90
10441;DHT22;5268;49.346;9.522;2023-10-19T11:03:21;19.20;99.90
10441;DHT22;5268;49.346;9.522;2023-10-19T11:08:26;19.30;99.90
10441;DHT22;5268;49.346;9.522;2023-10-19T11:13:28;19.30;99.90
10441;DHT22;5268;49.346;9.522;2023-10-19T11:18:32;19.20;99.90
10441;DHT22;5268;49.346;9.522;2023-10-19T11:23:38;19.10;99.90
10441;DHT22;5268;49.346;9.522;2023-10-19T11:28:41;19.10;99.90
10441;DHT22;5268;49.346;9.522;2023-10-19T11:33:48;19.10;99.90
10441;DHT22;5268;49.346;9.522;2023-10-19T11:38:52;19.10;99.90
10441;DHT22;5268;49.346;9.522;2023-10-19T11:43:54;19.20;99.90
10441;DHT22;5268;49.346;9.522;2023-10-19T11:48:56;19.20;99.90
10441;DHT22;5268;49.346;9.522;2023-10-19T11:54:00;19.20;99.90
10441;DHT22;5268;49.346;9.522;2023-10-19T11:59:02;19.20;99.90
10441;DHT22;5268;49.346;9.522;2023-10-19T12:04:04;19.20;99.90
10441;DHT22;5268;49.346;9.522;2023-10-19T12:09:08;19.20;99.90
10441;DHT22;5268;49.346;9.522;2023-10-19T12:14:16;19.20;99.90
10441;DHT22;5268;49.346;9.522;2023-10-19T12:19:18;19.10;99.90
10441;DHT22;5268;49.346;9.522;2023-10-19T12:24:21;19.00;99.90
10441;DHT22;5268;49.346;9.522;2023-10-19T12:29:24;19.00;99.90
10441;DHT22;5268;49.346;9.522;2023-10-19T12:34:26;18.90;99.90
10441;DHT22;5268;49.346;9.522;2023-10-19T12:39:31;18.90;99.90
10441;DHT22;5268;49.346;9.522;2023-10-19T12:44:43;18.90;99.90
10441;DHT22;5268;49.346;9.522;2023-10-19T12:49:45;18.90;99.90
10441;DHT22;5268;49.346;9.522;2023-10-19T12:54:50;18.80;99.90
10441;DHT22;5268;49.346;9.522;2023-10-19T12:59:59;18.80;99.90
10441;DHT22;5268;49.346;9.522;2023-10-19T13:05:07;18.70;99.90
10441;DHT22;5268;49.346;9.522;2023-10-19T13:10:11;18.60;99.90
10441;DHT22;5268;49.346;9.522;2023-10-19T13:15:13;18.60;99.90
10441;DHT22;5268;49.346;9.522;2023-10-19T13:20:17;18.60;99.90
10441;DHT22;5268;49.346;9.522;2023-10-19T13:25:21;18.50;99.90
10441;DHT22;5268;49.346;9.522;2023-10-19T13:30:40;18.50;99.90
10441;DHT22;5268;49.346;9.522;2023-10-19T13:35:44;18.50;99.90
10441;DHT22;5268;49.346;9.522;2023-10-19T13:40:47;18.50;99.90
10441;DHT22;5268;49.346;9.522;2023-10-19T13:45:52;18.50;99.90
10441;DHT22;5268;49.346;9.522;2023-10-19T13:50:57;18.50;99.90
10441;DHT22;5268;49.346;9.522;2023-10-19T13:56:14;18.50;99.90
10441;DHT22;5268;49.346;9.522;2023-10-19T14:01:18;18.40;99.90
10441;DHT22;5268;49.346;9.522;2023-10-19T14:06:24;18.40;99.90
10441;DHT22;5268;49.346;9.522;2023-10-19T14:11:29;18.30;99.90
10441;DHT22;5268;49.346;9.522;2023-10-19T14:16:31;18.30;99.90
10441;DHT22;5268;49.346;9.522;2023-10-19T14:21:33;18.20;99.90
10441;DHT22;5268;49.346;9.522;2023-10-19T14:26:39;18.10;99.90
10441;DHT22;5268;49.346;9.522;2023-10-19T14:31:43;18.10;99.90
10441;DHT22;5268;49.346;9.522;2023-10-19T14:36:45;18.00;99.90
10441;DHT22;5268;49.346;9.522;2023-10-19T14:41:49;18.00;99.90
10441;DHT22;5268;49.346;9.522;2023-10-19T14:46:51;18.00;99.90
10441;DHT22;5268;49.346;9.522;2023-10-19T14:51:53;18.00;99.90
10441;DHT22;5268;49.346;9.522;2023-10-19T14:56:57;17.90;99.90
10441;DHT22;5268;49.346;9.522;2023-10-19T15:01:59;17.90;99.90
10441;DHT22;5268;49.346;9.522;2023-10-19T15:07:01;17.80;99.90
10441;DHT22;5268;49.346;9.522;2023-10-19T15:12:05;17.80;99.90
10441;DHT22;5268;49.346;9.522;2023-10-19T15:17:08;17.70;99.90
10441;DHT22;5268;49.346;9.522;2023-10-19T15:22:10;17.70;99.90
10441;DHT22;5268;49.346;9.522;2023-10-19T15:27:15;17.60;99.90
10441;DHT22;5268;49.346;9.522;2023-10-19T15:32:19;17.60;99.90
10441;DHT22;5268;49.346;9.522;2023-10-19T15:37:21;17.50;99.90
10441;DHT22;5268;49.346;9.522;2023-10-19T15:42:24;17.40;99.90
10441;DHT22;5268;49.346;9.522;2023-10-19T15:47:27;17.30;99.90
10441;DHT22;5268;49.346;9.522;2023-10-19T15:52:30;17.10;99.90
10441;DHT22;5268;49.346;9.522;2023-10-19T15:57:36;17.00;99.90
10441;DHT22;5268;49.346;9.522;2023-10-19T16:02:40;17.00;99.90
10441;DHT22;5268;49.346;9.522;2023-10-19T16:07:42;17.00;99.90
10441;DHT22;5268;49.346;9.522;2023-10-19T16:12:46;16.90;99.90
10441;DHT22;5268;49.346;9.522;2023-10-19T16:17:48;16.90;99.90
10441;DHT22;5268;49.346;9.522;2023-10-19T16:22:51;16.90;99.90
10441;DHT22;5268;49.346;9.522;2023-10-19T16:27:55;16.80;99.90
10441;DHT22;5268;49.346;9.522;2023-10-19T16:32:58;16.80;99.90
10441;DHT22;5268;49.346;9.522;2023-10-19T16:38:03;16.80;99.90
10441;DHT22;5268;49.346;9.522;2023-10-19T16:43:10;16.70;99.90
10441;DHT22;5268;49.346;9.522;2023-10-19T16:48:14;16.70;99.90
10441;DHT22;5268;49.346;9.522;2023-10-19T16:53:16;16.70;99.90
10441;DHT22;5268;49.346;9.522;2023-10-19T16:58:19;16.60;99.90
10441;DHT22;5268;49.346;9.522;2023-10-19T17:03:22;16.60;99.90
10441;DHT22;5268;49.346;9.522;2023-10-19T17:08:26;16.60;99.90
10441;DHT22;5268;49.346;9.522;2023-10-19T17:13:34;16.60;99.90
10441;DHT22;5268;49.346;9.522;2023-10-19T17:18:37;16.50;99.90
10441;DHT22;5268;49.346;9.522;2023-10-19T17:23:40;16.50;99.90
10441;DHT22;5268;49.346;9.522;2023-10-19T17:28:45;16.50;99.90
10441;DHT22;5268;49.346;9.522;2023-10-19T17:33:50;16.40;99.90
10441;DHT22;5268;49.346;9.522;2023-10-19T17:38:54;16.40;99.90
10441;DHT22;5268;49.346;9.522;2023-10-19T17:44:05;16.40;99.90
10441;DHT22;5268;49.346;9.522;2023-10-19T17:49:10;16.40;99.90
10441;DHT22;5268;49.346;9.522;2023-10-19T17:54:13;16.40;99.90
10441;DHT22;5268;49.346;9.522;2023-10-19T17:59:17;16.30;99.90
10441;DHT22;5268;49.346;9.522;2023-10-19T18:04:20;16.30;99.90
10441;DHT22;5268;49.346;9.522;2023-10-19T18:09:22;16.30;99.90
10441;DHT22;5268;49.346;9.522;2023-10-19T18:14:25;16.30;99.90
10441;DHT22;5268;49.346;9.522;2023-10-19T18:19:28;16.20;99.90
10441;DHT22;5268;49.346;9.522;2023-10-19T18:24:33;16.20;99.90
10441;DHT22;5268;49.346;9.522;2023-10-19T18:29:36;16.10;99.90
10441;DHT22;5268;49.346;9.522;2023-10-19T18:34:38;16.10;99.90
10441;DHT22;5268;49.346;9.522;2023-10-19T18:39:43;16.10;99.90
10441;DHT22;5268;49.346;9.522;2023-10-19T18:44:47;16.00;99.90
10441;DHT22;5268;49.346;9.522;2023-10-19T18:49:53;16.00;99.90
10441;DHT22;5268;49.346;9.522;2023-10-19T18:54:58;16.00;99.90
10441;DHT22;5268;49.346;9.522;2023-10-19T19:00:06;16.00;99.90
10441;DHT22;5268;49.346;9.522;2023-10-19T19:05:08;15.90;99.90
10441;DHT22;5268;49.346;9.522;2023-10-19T19:10:10;15.90;99.90
10441;DHT22;5268;49.346;9.522;2023-10-19T19:15:14;15.90;99.90
10441;DHT22;5268;49.346;9.522;2023-10-19T19:20:17;15.80;99.90
10441;DHT22;5268;49.346;9.522;2023-10-19T19:25:21;15.80;99.90
10441;DHT22;5268;49.346;9.522;2023-10-19T19:30:25;15.80;99.90
10441;DHT22;5268;49.346;9.522;2023-10-19T19:35:27;15.70;99.90
10441;DHT22;5268;49.346;9.522;2023-10-19T19:40:29;15.70;99.90
10441;DHT22;5268;49.346;9.522;2023-10-19T19:45:33;15.70;99.90
10441;DHT22;5268;49.346;9.522;2023-10-19T19:50:36;15.70;99.90
10441;DHT22;5268;49.346;9.522;2023-10-19T19:55:42;15.70;99.90
10441;DHT22;5268;49.346;9.522;2023-10-19T20:00:48;15.70;99.90
10441;DHT22;5268;49.346;9.522;2023-10-19T20:05:56;15.60;99.90
10441;DHT22;5268;49.346;9.522;2023-10-19T20:10:58;15.60;99.90
10441;DHT22;5268;49.346;9.522;2023-10-19T20:16:02;15.60;99.90
10441;DHT22;5268;49.346;9.522;2023-10-19T20:21:04;15.60;99.90
10441;DHT22;5268;49.346;9.522;2023-10-19T20:26:06;15.60;99.90
10441;DHT22;5268;49.346;9.522;2023-10-19T20:31:10;15.60;99.90
10441;DHT22;5268;49.346;9.522;2023-10-19T20:36:12;15.60;99.90
10441;DHT22;5268;49.346;9.522;2023-10-19T20:41:14;15.60;99.90
10441;DHT22;5268;49.346;9.522;2023-10-19T20:46:18;15.60;99.90
10441;DHT22;5268;49.346;9.522;2023-10-19T20:51:19;15.60;99.90
10441;DHT22;5268;49.346;9.522;2023-10-19T20:56:22;15.60;99.90
10441;DHT22;5268;49.346;9.522;2023-10-19T21:01:26;15.50;99.90
10441;DHT22;5268;49.346;9.522;2023-10-19T21:06:27;15.50;99.90
10441;DHT22;5268;49.346;9.522;2023-10-19T21:11:32;15.50;99.90
10441;DHT22;5268;49.346;9.522;2023-10-19T21:16:36;15.50;99.90
10441;DHT22;5268;49.346;9.522;2023-10-19T21:21:38;15.50;99.90
10441;DHT22;5268;49.346;9.522;2023-10-19T21:26:40;15.50;99.90
10441;DHT22;5268;49.346;9.522;2023-10-19T21:31:45;15.50;99.90
10441;DHT22;5268;49.346;9.522;2023-10-19T21:36:47;15.50;99.90
10441;DHT22;5268;49.346;9.522;2023-10-19T21:41:49;15.40;99.90
10441;DHT22;5268;49.346;9.522;2023-10-19T21:46:53;15.40;99.90
10441;DHT22;5268;49.346;9.522;2023-10-19T21:51:56;15.40;99.90
